sensor_id;sensor_type;location;lat;lon;timestamp;pressure;altitude;pressure_sealevel;temperature;humidity
16331;BME280;8275;48.206;16.340;2023-04-19T00:00:20;99512.69;;;15.76;49.00
16331;BME280;8275;48.206;16.340;2023-04-19T00:02:49;99514.94;;;15.74;49.08
16331;BME280;8275;48.206;16.340;2023-04-19T00:05:17;99509.97;;;15.71;48.92
16331;BME280;8275;48.206;16.340;2023-04-19T00:07:48;99507.75;;;15.68;49.10
16331;BME280;8275;48.206;16.340;2023-04-19T00:10:17;99509.44;;;15.64;49.10
16331;BME280;8275;48.206;16.340;2023-04-19T00:12:46;99510.28;;;15.60;49.29
16331;BME280;8275;48.206;16.340;2023-04-19T00:15:15;99514.75;;;15.56;49.59
16331;BME280;8275;48.206;16.340;2023-04-19T00:17:43;99495.97;;;15.53;49.43
16331;BME280;8275;48.206;16.340;2023-04-19T00:20:12;99502.03;;;15.50;49.38
16331;BME280;8275;48.206;16.340;2023-04-19T00:22:41;99495.44;;;15.45;49.48
16331;BME280;8275;48.206;16.340;2023-04-19T00:25:09;99503.44;;;15.42;49.45
16331;BME280;8275;48.206;16.340;2023-04-19T00:27:38;99504.84;;;15.39;49.32
16331;BME280;8275;48.206;16.340;2023-04-19T00:30:09;99489.38;;;15.33;49.62
16331;BME280;8275;48.206;16.340;2023-04-19T00:32:37;99491.34;;;15.33;49.61
16331;BME280;8275;48.206;16.340;2023-04-19T00:35:06;99494.34;;;15.31;49.80
16331;BME280;8275;48.206;16.340;2023-04-19T00:37:35;99486.66;;;15.28;49.75
16331;BME280;8275;48.206;16.340;2023-04-19T00:40:05;99491.59;;;15.26;49.82
16331;BME280;8275;48.206;16.340;2023-04-19T00:42:34;99482.53;;;15.26;49.98
16331;BME280;8275;48.206;16.340;2023-04-19T00:45:04;99481.69;;;15.25;50.15
16331;BME280;8275;48.206;16.340;2023-04-19T00:47:35;99478.63;;;15.27;50.10
16331;BME280;8275;48.206;16.340;2023-04-19T00:50:05;99470.34;;;15.27;50.02
16331;BME280;8275;48.206;16.340;2023-04-19T00:52:34;99465.38;;;15.29;50.15
16331;BME280;8275;48.206;16.340;2023-04-19T00:55:04;99468.13;;;15.29;49.97
16331;BME280;8275;48.206;16.340;2023-04-19T00:57:34;99469.81;;;15.30;50.03
16331;BME280;8275;48.206;16.340;2023-04-19T01:00:05;99463.75;;;15.28;49.97
16331;BME280;8275;48.206;16.340;2023-04-19T01:02:37;99458.50;;;15.26;50.00
16331;BME280;8275;48.206;16.340;2023-04-19T01:05:06;99453.56;;;15.23;50.00
16331;BME280;8275;48.206;16.340;2023-04-19T01:07:35;99466.22;;;15.24;49.98
16331;BME280;8275;48.206;16.340;2023-04-19T01:10:04;99458.53;;;15.21;50.01
16331;BME280;8275;48.206;16.340;2023-04-19T01:12:33;99458.78;;;15.20;50.08
16331;BME280;8275;48.206;16.340;2023-04-19T01:15:02;99453.84;;;15.17;49.85
16331;BME280;8275;48.206;16.340;2023-04-19T01:17:31;99449.16;;;15.17;49.99
16331;BME280;8275;48.206;16.340;2023-04-19T01:20:03;99442.28;;;15.15;50.27
16331;BME280;8275;48.206;16.340;2023-04-19T01:22:35;99446.13;;;15.14;50.09
16331;BME280;8275;48.206;16.340;2023-04-19T01:25:05;99449.44;;;15.11;50.15
16331;BME280;8275;48.206;16.340;2023-04-19T01:27:34;99437.88;;;15.09;50.22
16331;BME280;8275;48.206;16.340;2023-04-19T01:30:04;99441.75;;;15.08;50.24
16331;BME280;8275;48.206;16.340;2023-04-19T01:32:33;99442.31;;;15.05;50.36
16331;BME280;8275;48.206;16.340;2023-04-19T01:35:01;99444.53;;;15.03;50.22
16331;BME280;8275;48.206;16.340;2023-04-19T01:37:30;99442.31;;;15.00;50.22
16331;BME280;8275;48.206;16.340;2023-04-19T01:40:00;99445.63;;;14.97;50.35
16331;BME280;8275;48.206;16.340;2023-04-19T01:42:28;99434.88;;;14.95;50.40
16331;BME280;8275;48.206;16.340;2023-04-19T01:44:56;99436.81;;;14.95;50.69
16331;BME280;8275;48.206;16.340;2023-04-19T01:47:25;99441.22;;;14.96;50.85
16331;BME280;8275;48.206;16.340;2023-04-19T01:49:53;99441.78;;;14.98;50.86
16331;BME280;8275;48.206;16.340;2023-04-19T01:52:22;99443.16;;;15.00;50.90
16331;BME280;8275;48.206;16.340;2023-04-19T01:54:50;99447.00;;;15.04;50.94
16331;BME280;8275;48.206;16.340;2023-04-19T01:57:20;99442.28;;;15.10;50.71
16331;BME280;8275;48.206;16.340;2023-04-19T01:59:48;99441.44;;;15.14;50.88
16331;BME280;8275;48.206;16.340;2023-04-19T02:02:17;99436.72;;;15.20;50.64
16331;BME280;8275;48.206;16.340;2023-04-19T02:04:46;99433.41;;;15.23;50.53
16331;BME280;8275;48.206;16.340;2023-04-19T02:07:14;99432.84;;;15.26;50.55
16331;BME280;8275;48.206;16.340;2023-04-19T02:09:43;99420.41;;;15.28;50.49
16331;BME280;8275;48.206;16.340;2023-04-19T02:12:11;99422.31;;;15.33;50.35
16331;BME280;8275;48.206;16.340;2023-04-19T02:14:41;99422.56;;;15.36;50.32
16331;BME280;8275;48.206;16.340;2023-04-19T02:17:09;99419.78;;;15.41;50.45
16331;BME280;8275;48.206;16.340;2023-04-19T02:19:38;99423.41;;;15.47;50.17
16331;BME280;8275;48.206;16.340;2023-04-19T02:22:06;99419.78;;;15.52;50.19
16331;BME280;8275;48.206;16.340;2023-04-19T02:24:34;99404.00;;;15.57;50.11
16331;BME280;8275;48.206;16.340;2023-04-19T02:27:03;99407.56;;;15.63;50.06
16331;BME280;8275;48.206;16.340;2023-04-19T02:29:32;99414.97;;;15.67;50.12
16331;BME280;8275;48.206;16.340;2023-04-19T02:32:01;99414.13;;;15.72;50.16
16331;BME280;8275;48.206;16.340;2023-04-19T02:34:32;99410.50;;;15.76;49.98
16331;BME280;8275;48.206;16.340;2023-04-19T02:37:01;99408.81;;;15.80;49.64
16331;BME280;8275;48.206;16.340;2023-04-19T02:39:30;99411.00;;;15.83;49.42
16331;BME280;8275;48.206;16.340;2023-04-19T02:42:00;99410.72;;;15.85;49.73
16331;BME280;8275;48.206;16.340;2023-04-19T02:44:28;99406.84;;;15.86;49.58
16331;BME280;8275;48.206;16.340;2023-04-19T02:46:57;99399.09;;;15.88;49.62
16331;BME280;8275;48.206;16.340;2023-04-19T02:49:27;99394.09;;;15.90;49.44
16331;BME280;8275;48.206;16.340;2023-04-19T02:51:59;99392.16;;;15.90;49.33
16331;BME280;8275;48.206;16.340;2023-04-19T02:54:27;99393.81;;;15.91;49.24
16331;BME280;8275;48.206;16.340;2023-04-19T02:56:56;99389.41;;;15.90;49.05
16331;BME280;8275;48.206;16.340;2023-04-19T02:59:24;99392.44;;;15.89;49.17
16331;BME280;8275;48.206;16.340;2023-04-19T03:01:52;99384.75;;;15.86;49.31
16331;BME280;8275;48.206;16.340;2023-04-19T03:04:21;99381.16;;;15.85;49.04
16331;BME280;8275;48.206;16.340;2023-04-19T03:06:51;99368.44;;;15.84;49.13
16331;BME280;8275;48.206;16.340;2023-04-19T03:09:20;99375.63;;;15.85;49.29
16331;BME280;8275;48.206;16.340;2023-04-19T03:11:48;99372.34;;;15.83;49.15
16331;BME280;8275;48.206;16.340;2023-04-19T03:14:17;99373.44;;;15.82;49.13
16331;BME280;8275;48.206;16.340;2023-04-19T03:16:45;99368.22;;;15.81;49.15
16331;BME280;8275;48.206;16.340;2023-04-19T03:19:14;99366.28;;;15.81;49.20
16331;BME280;8275;48.206;16.340;2023-04-19T03:21:42;99370.13;;;15.80;49.24
16331;BME280;8275;48.206;16.340;2023-04-19T03:24:12;99361.00;;;15.80;49.20
16331;BME280;8275;48.206;16.340;2023-04-19T03:26:41;99361.84;;;15.80;49.48
16331;BME280;8275;48.206;16.340;2023-04-19T03:29:09;99355.22;;;15.81;49.59
16331;BME280;8275;48.206;16.340;2023-04-19T03:31:38;99359.63;;;15.82;49.70
16331;BME280;8275;48.206;16.340;2023-04-19T03:34:06;99355.75;;;15.83;49.70
16331;BME280;8275;48.206;16.340;2023-04-19T03:36:34;99353.81;;;15.84;49.68
16331;BME280;8275;48.206;16.340;2023-04-19T03:39:03;99354.09;;;15.82;49.68
16331;BME280;8275;48.206;16.340;2023-04-19T03:41:33;99346.44;;;15.74;50.04
16331;BME280;8275;48.206;16.340;2023-04-19T03:44:01;99347.03;;;15.66;50.12
16331;BME280;8275;48.206;16.340;2023-04-19T03:46:30;99355.13;;;15.58;50.24
16331;BME280;8275;48.206;16.340;2023-04-19T03:48:58;99356.53;;;15.50;50.62
16331;BME280;8275;48.206;16.340;2023-04-19T03:51:27;99349.66;;;15.42;50.58
16331;BME280;8275;48.206;16.340;2023-04-19T03:53:55;99349.16;;;15.35;50.73
16331;BME280;8275;48.206;16.340;2023-04-19T03:56:23;99337.03;;;15.31;50.94
16331;BME280;8275;48.206;16.340;2023-04-19T03:58:53;99348.09;;;15.26;50.90
16331;BME280;8275;48.206;16.340;2023-04-19T04:01:23;99341.22;;;15.24;51.06
16331;BME280;8275;48.206;16.340;2023-04-19T04:03:51;99340.41;;;15.23;51.38
16331;BME280;8275;48.206;16.340;2023-04-19T04:06:20;99340.13;;;15.20;51.51
16331;BME280;8275;48.206;16.340;2023-04-19T04:08:48;99341.25;;;15.19;51.57
16331;BME280;8275;48.206;16.340;2023-04-19T04:11:17;99350.63;;;15.18;51.59
16331;BME280;8275;48.206;16.340;2023-04-19T04:13:45;99354.53;;;15.17;51.63
16331;BME280;8275;48.206;16.340;2023-04-19T04:16:17;99352.56;;;15.17;51.56
16331;BME280;8275;48.206;16.340;2023-04-19T04:18:45;99350.94;;;15.16;51.65
16331;BME280;8275;48.206;16.340;2023-04-19T04:21:13;99345.66;;;15.20;51.76
16331;BME280;8275;48.206;16.340;2023-04-19T04:23:42;99344.56;;;15.21;51.74
16331;BME280;8275;48.206;16.340;2023-04-19T04:26:11;99347.56;;;15.24;51.70
16331;BME280;8275;48.206;16.340;2023-04-19T04:28:40;99340.94;;;15.25;51.60
16331;BME280;8275;48.206;16.340;2023-04-19T04:31:08;99350.59;;;15.28;51.72
16331;BME280;8275;48.206;16.340;2023-04-19T04:33:40;99346.13;;;15.32;51.69
16331;BME280;8275;48.206;16.340;2023-04-19T04:36:09;99342.81;;;15.35;51.63
16331;BME280;8275;48.206;16.340;2023-04-19T04:38:38;99338.66;;;15.37;51.59
16331;BME280;8275;48.206;16.340;2023-04-19T04:41:06;99356.28;;;15.41;51.58
16331;BME280;8275;48.206;16.340;2023-04-19T04:43:35;99348.56;;;15.43;51.53
16331;BME280;8275;48.206;16.340;2023-04-19T04:46:04;99337.25;;;15.45;51.52
16331;BME280;8275;48.206;16.340;2023-04-19T04:48:33;99341.91;;;15.50;51.52
16331;BME280;8275;48.206;16.340;2023-04-19T04:51:03;99343.56;;;15.51;51.46
16331;BME280;8275;48.206;16.340;2023-04-19T04:53:31;99338.88;;;15.51;51.80
16331;BME280;8275;48.206;16.340;2023-04-19T04:55:59;99336.94;;;15.52;51.62
16331;BME280;8275;48.206;16.340;2023-04-19T04:58:28;99334.19;;;15.52;51.69
16331;BME280;8275;48.206;16.340;2023-04-19T05:00:56;99337.75;;;15.52;51.70
16331;BME280;8275;48.206;16.340;2023-04-19T05:03:25;99327.84;;;15.51;51.81
16331;BME280;8275;48.206;16.340;2023-04-19T05:05:54;99328.94;;;15.50;51.60
16331;BME280;8275;48.206;16.340;2023-04-19T05:08:25;99331.44;;;15.52;51.68
16331;BME280;8275;48.206;16.340;2023-04-19T05:10:53;99321.47;;;15.51;51.88
16331;BME280;8275;48.206;16.340;2023-04-19T05:13:22;99332.53;;;15.51;51.73
16331;BME280;8275;48.206;16.340;2023-04-19T05:15:50;99322.56;;;15.50;51.78
16331;BME280;8275;48.206;16.340;2023-04-19T05:18:19;99323.41;;;15.50;51.74
16331;BME280;8275;48.206;16.340;2023-04-19T05:20:47;99325.91;;;15.52;51.69
16331;BME280;8275;48.206;16.340;2023-04-19T05:23:15;99316.50;;;15.53;51.69
16331;BME280;8275;48.206;16.340;2023-04-19T05:25:45;99316.50;;;15.53;51.56
16331;BME280;8275;48.206;16.340;2023-04-19T05:28:14;99318.94;;;15.54;51.77
16331;BME280;8275;48.206;16.340;2023-04-19T05:30:42;99317.56;;;15.57;51.75
16331;BME280;8275;48.206;16.340;2023-04-19T05:33:11;99315.31;;;15.59;51.88
16331;BME280;8275;48.206;16.340;2023-04-19T05:35:39;99318.66;;;15.61;52.07
16331;BME280;8275;48.206;16.340;2023-04-19T05:38:08;99319.47;;;15.61;52.08
16331;BME280;8275;48.206;16.340;2023-04-19T05:40:36;99310.38;;;15.61;52.28
16331;BME280;8275;48.206;16.340;2023-04-19T05:43:07;99303.19;;;15.60;52.13
16331;BME280;8275;48.206;16.340;2023-04-19T05:45:36;99304.84;;;15.61;52.30
16331;BME280;8275;48.206;16.340;2023-04-19T05:48:05;99299.84;;;15.63;52.29
16331;BME280;8275;48.206;16.340;2023-04-19T05:50:34;99300.63;;;15.68;52.27
16331;BME280;8275;48.206;16.340;2023-04-19T05:53:03;99291.19;;;15.74;52.24
16331;BME280;8275;48.206;16.340;2023-04-19T05:55:31;99300.25;;;15.80;52.77
16331;BME280;8275;48.206;16.340;2023-04-19T05:58:00;99298.31;;;15.80;52.70
16331;BME280;8275;48.206;16.340;2023-04-19T06:00:30;99296.97;;;15.78;52.84
16331;BME280;8275;48.206;16.340;2023-04-19T06:02:58;99301.13;;;15.75;53.06
16331;BME280;8275;48.206;16.340;2023-04-19T06:05:27;99295.34;;;15.72;53.13
16331;BME280;8275;48.206;16.340;2023-04-19T06:07:55;99302.28;;;15.69;53.33
16331;BME280;8275;48.206;16.340;2023-04-19T06:10:29;99297.59;;;15.70;53.06
16331;BME280;8275;48.206;16.340;2023-04-19T06:13:17;99307.50;;;15.71;53.06
16331;BME280;8275;48.206;16.340;2023-04-19T06:15:47;99297.28;;;15.71;52.96
16331;BME280;8275;48.206;16.340;2023-04-19T06:18:16;99300.28;;;15.75;53.06
16331;BME280;8275;48.206;16.340;2023-04-19T06:20:46;99301.38;;;15.79;52.75
16331;BME280;8275;48.206;16.340;2023-04-19T06:23:15;99302.13;;;15.84;52.83
16331;BME280;8275;48.206;16.340;2023-04-19T06:25:45;99301.28;;;15.89;52.84
16331;BME280;8275;48.206;16.340;2023-04-19T06:28:15;99297.09;;;15.91;52.77
16331;BME280;8275;48.206;16.340;2023-04-19T06:30:43;99305.66;;;15.95;52.69
16331;BME280;8275;48.206;16.340;2023-04-19T06:33:13;99296.22;;;15.96;52.44
16331;BME280;8275;48.206;16.340;2023-04-19T06:35:41;99303.41;;;15.97;52.40
16331;BME280;8275;48.206;16.340;2023-04-19T06:38:09;99301.75;;;15.96;52.28
16331;BME280;8275;48.206;16.340;2023-04-19T06:40:38;99307.28;;;15.96;52.14
16331;BME280;8275;48.206;16.340;2023-04-19T06:43:06;99306.75;;;15.94;52.09
16331;BME280;8275;48.206;16.340;2023-04-19T06:45:35;99298.25;;;15.90;52.09
16331;BME280;8275;48.206;16.340;2023-04-19T06:48:04;99296.03;;;15.87;52.30
16331;BME280;8275;48.206;16.340;2023-04-19T06:50:34;99301.34;;;15.84;52.24
16331;BME280;8275;48.206;16.340;2023-04-19T06:53:03;99295.25;;;15.82;52.32
16331;BME280;8275;48.206;16.340;2023-04-19T06:55:31;99293.09;;;15.79;52.45
16331;BME280;8275;48.206;16.340;2023-04-19T06:58:00;99290.59;;;15.77;52.34
16331;BME280;8275;48.206;16.340;2023-04-19T07:00:28;99289.22;;;15.75;52.50
16331;BME280;8275;48.206;16.340;2023-04-19T07:02:57;99291.47;;;15.73;52.52
16331;BME280;8275;48.206;16.340;2023-04-19T07:05:28;99295.63;;;15.70;52.59
16331;BME280;8275;48.206;16.340;2023-04-19T07:07:58;99292.34;;;15.68;52.96
16331;BME280;8275;48.206;16.340;2023-04-19T07:10:27;99293.47;;;15.67;52.76
16331;BME280;8275;48.206;16.340;2023-04-19T07:12:55;99291.81;;;15.66;52.98
16331;BME280;8275;48.206;16.340;2023-04-19T07:15:23;99292.63;;;15.67;53.02
16331;BME280;8275;48.206;16.340;2023-04-19T07:17:52;99292.06;;;15.70;52.96
16331;BME280;8275;48.206;16.340;2023-04-19T07:20:20;99293.97;;;15.74;53.37
16331;BME280;8275;48.206;16.340;2023-04-19T07:22:49;99281.78;;;15.75;53.36
16331;BME280;8275;48.206;16.340;2023-04-19T07:25:19;99285.06;;;15.77;53.45
16331;BME280;8275;48.206;16.340;2023-04-19T07:27:47;99292.25;;;15.78;53.39
16331;BME280;8275;48.206;16.340;2023-04-19T07:30:15;99284.81;;;15.79;53.34
16331;BME280;8275;48.206;16.340;2023-04-19T07:32:44;99282.88;;;15.79;53.23
16331;BME280;8275;48.206;16.340;2023-04-19T07:35:13;99284.28;;;15.77;53.39
16331;BME280;8275;48.206;16.340;2023-04-19T07:37:41;99289.81;;;15.77;53.42
16331;BME280;8275;48.206;16.340;2023-04-19T07:40:11;99284.28;;;15.77;53.78
16331;BME280;8275;48.206;16.340;2023-04-19T07:42:42;99281.50;;;15.77;53.69
16331;BME280;8275;48.206;16.340;2023-04-19T07:45:11;99279.84;;;15.76;53.77
16331;BME280;8275;48.206;16.340;2023-04-19T07:47:40;99285.69;;;15.74;53.65
16331;BME280;8275;48.206;16.340;2023-04-19T07:50:10;99281.56;;;15.72;53.77
16331;BME280;8275;48.206;16.340;2023-04-19T07:52:38;99290.66;;;15.72;53.83
16331;BME280;8275;48.206;16.340;2023-04-19T07:55:08;99290.94;;;15.71;53.66
16331;BME280;8275;48.206;16.340;2023-04-19T07:57:36;99287.63;;;15.69;53.80
16331;BME280;8275;48.206;16.340;2023-04-19T08:00:08;99281.59;;;15.67;53.97
16331;BME280;8275;48.206;16.340;2023-04-19T08:02:37;99289.03;;;15.66;53.79
16331;BME280;8275;48.206;16.340;2023-04-19T08:05:06;99277.16;;;15.66;53.95
16331;BME280;8275;48.206;16.340;2023-04-19T08:07:36;99286.59;;;15.65;53.93
16331;BME280;8275;48.206;16.340;2023-04-19T08:10:06;99284.13;;;15.63;54.05
16331;BME280;8275;48.206;16.340;2023-04-19T08:12:35;99289.63;;;15.63;54.31
16331;BME280;8275;48.206;16.340;2023-04-19T08:15:17;99280.53;;;15.63;54.36
16331;BME280;8275;48.206;16.340;2023-04-19T08:17:55;99285.75;;;15.64;54.54
16331;BME280;8275;48.206;16.340;2023-04-19T08:20:23;99276.63;;;15.64;54.28
16331;BME280;8275;48.206;16.340;2023-04-19T08:22:52;99280.75;;;15.66;54.41
16331;BME280;8275;48.206;16.340;2023-04-19T08:25:21;99276.03;;;15.72;54.55
16331;BME280;8275;48.206;16.340;2023-04-19T08:27:52;99281.75;;;15.80;54.64
16331;BME280;8275;48.206;16.340;2023-04-19T08:30:22;99280.00;;;15.89;54.44
16331;BME280;8275;48.206;16.340;2023-04-19T08:32:51;99278.56;;;15.97;54.37
16331;BME280;8275;48.206;16.340;2023-04-19T08:35:23;99273.50;;;16.04;54.08
16331;BME280;8275;48.206;16.340;2023-04-19T08:37:52;99271.50;;;16.09;53.49
16331;BME280;8275;48.206;16.340;2023-04-19T08:40:20;99279.16;;;16.17;53.51
16331;BME280;8275;48.206;16.340;2023-04-19T08:42:49;99273.59;;;16.23;53.26
16331;BME280;8275;48.206;16.340;2023-04-19T08:45:18;99275.16;;;16.29;53.53
16331;BME280;8275;48.206;16.340;2023-04-19T08:47:56;99271.84;;;16.32;53.18
16331;BME280;8275;48.206;16.340;2023-04-19T08:50:28;99271.88;;;16.27;52.66
16331;BME280;8275;48.206;16.340;2023-04-19T08:53:08;99276.06;;;16.24;52.92
16331;BME280;8275;48.206;16.340;2023-04-19T08:55:41;99267.81;;;16.19;52.98
16331;BME280;8275;48.206;16.340;2023-04-19T08:58:29;99274.22;;;16.14;53.27
16331;BME280;8275;48.206;16.340;2023-04-19T09:01:18;99276.81;;;16.06;53.71
16331;BME280;8275;48.206;16.340;2023-04-19T09:04:03;99284.06;;;15.97;53.96
16331;BME280;8275;48.206;16.340;2023-04-19T09:06:54;99275.88;;;15.87;54.48
16331;BME280;8275;48.206;16.340;2023-04-19T09:09:25;99275.16;;;15.76;55.00
16331;BME280;8275;48.206;16.340;2023-04-19T09:11:56;99278.78;;;15.72;55.55
16331;BME280;8275;48.206;16.340;2023-04-19T09:14:27;99275.75;;;15.68;56.12
16331;BME280;8275;48.206;16.340;2023-04-19T09:17:11;99279.13;;;15.65;56.44
16331;BME280;8275;48.206;16.340;2023-04-19T09:19:46;99277.47;;;15.64;56.79
16331;BME280;8275;48.206;16.340;2023-04-19T09:22:16;99273.34;;;15.62;57.22
16331;BME280;8275;48.206;16.340;2023-04-19T09:24:45;99281.94;;;15.60;57.43
16331;BME280;8275;48.206;16.340;2023-04-19T09:27:25;99279.72;;;15.57;57.58
16331;BME280;8275;48.206;16.340;2023-04-19T09:29:54;99274.75;;;15.59;57.88
16331;BME280;8275;48.206;16.340;2023-04-19T09:32:24;99273.88;;;15.64;58.33
16331;BME280;8275;48.206;16.340;2023-04-19T09:34:56;99273.84;;;15.69;58.49
16331;BME280;8275;48.206;16.340;2023-04-19T09:37:26;99270.69;;;15.80;58.94
16331;BME280;8275;48.206;16.340;2023-04-19T09:39:57;99271.72;;;15.89;59.05
16331;BME280;8275;48.206;16.340;2023-04-19T09:42:44;99276.31;;;15.99;58.97
16331;BME280;8275;48.206;16.340;2023-04-19T09:45:16;99271.81;;;16.08;58.95
16331;BME280;8275;48.206;16.340;2023-04-19T09:48:00;99273.66;;;16.17;59.32
16331;BME280;8275;48.206;16.340;2023-04-19T09:50:32;99271.84;;;16.32;59.58
16331;BME280;8275;48.206;16.340;2023-04-19T09:53:21;99268.34;;;16.45;59.58
16331;BME280;8275;48.206;16.340;2023-04-19T09:55:51;99264.44;;;16.51;59.38
16331;BME280;8275;48.206;16.340;2023-04-19T09:58:28;99260.19;;;16.58;59.41
16331;BME280;8275;48.206;16.340;2023-04-19T10:01:00;99268.44;;;16.63;59.28
16331;BME280;8275;48.206;16.340;2023-04-19T10:03:43;99260.06;;;16.68;59.52
16331;BME280;8275;48.206;16.340;2023-04-19T10:06:15;99270.78;;;16.75;59.28
16331;BME280;8275;48.206;16.340;2023-04-19T10:08:49;99268.53;;;16.77;58.90
16331;BME280;8275;48.206;16.340;2023-04-19T10:11:19;99257.47;;;16.77;59.28
16331;BME280;8275;48.206;16.340;2023-04-19T10:13:49;99261.59;;;16.79;58.90
16331;BME280;8275;48.206;16.340;2023-04-19T10:16:20;99267.34;;;16.83;59.13
16331;BME280;8275;48.206;16.340;2023-04-19T10:18:49;99258.97;;;16.88;59.05
16331;BME280;8275;48.206;16.340;2023-04-19T10:21:19;99261.69;;;16.93;59.14
16331;BME280;8275;48.206;16.340;2023-04-19T10:23:49;99254.72;;;16.96;59.16
16331;BME280;8275;48.206;16.340;2023-04-19T10:26:18;99245.84;;;16.99;58.92
16331;BME280;8275;48.206;16.340;2023-04-19T10:28:47;99256.81;;;17.04;59.15
16331;BME280;8275;48.206;16.340;2023-04-19T10:31:19;99249.56;;;17.08;59.37
16331;BME280;8275;48.206;16.340;2023-04-19T10:33:50;99254.22;;;17.12;59.27
16331;BME280;8275;48.206;16.340;2023-04-19T10:36:20;99250.09;;;17.10;58.62
16331;BME280;8275;48.206;16.340;2023-04-19T10:38:50;99252.94;;;17.05;58.62
16331;BME280;8275;48.206;16.340;2023-04-19T10:41:20;99254.66;;;17.01;58.79
16331;BME280;8275;48.206;16.340;2023-04-19T10:44:10;99252.84;;;16.91;58.40
16331;BME280;8275;48.206;16.340;2023-04-19T10:46:38;99247.38;;;16.86;58.23
16331;BME280;8275;48.206;16.340;2023-04-19T10:49:07;99246.91;;;16.79;58.50
16331;BME280;8275;48.206;16.340;2023-04-19T10:51:49;99254.50;;;16.73;58.71
16331;BME280;8275;48.206;16.340;2023-04-19T10:54:29;99252.88;;;16.67;58.43
16331;BME280;8275;48.206;16.340;2023-04-19T10:57:00;99240.56;;;16.60;58.46
16331;BME280;8275;48.206;16.340;2023-04-19T10:59:32;99239.78;;;16.54;58.66
16331;BME280;8275;48.206;16.340;2023-04-19T11:02:02;99245.91;;;16.51;58.88
16331;BME280;8275;48.206;16.340;2023-04-19T11:04:59;99245.06;;;16.51;59.43
16331;BME280;8275;48.206;16.340;2023-04-19T11:07:38;99237.78;;;16.60;60.00
16331;BME280;8275;48.206;16.340;2023-04-19T11:10:09;99227.94;;;16.72;60.16
16331;BME280;8275;48.206;16.340;2023-04-19T11:12:42;99236.84;;;16.88;60.51
16331;BME280;8275;48.206;16.340;2023-04-19T11:15:11;99231.69;;;17.00;60.27
16331;BME280;8275;48.206;16.340;2023-04-19T11:17:40;99224.59;;;17.13;60.17
16331;BME280;8275;48.206;16.340;2023-04-19T11:20:10;99224.34;;;17.28;60.42
16331;BME280;8275;48.206;16.340;2023-04-19T11:22:44;99223.16;;;17.47;60.52
16331;BME280;8275;48.206;16.340;2023-04-19T11:25:15;99220.78;;;17.60;60.20
16331;BME280;8275;48.206;16.340;2023-04-19T11:27:46;99227.59;;;17.67;59.72
16331;BME280;8275;48.206;16.340;2023-04-19T11:30:17;99222.88;;;17.68;59.10
16331;BME280;8275;48.206;16.340;2023-04-19T11:32:50;99223.56;;;17.60;57.99
16331;BME280;8275;48.206;16.340;2023-04-19T11:35:21;99214.00;;;17.52;58.07
16331;BME280;8275;48.206;16.340;2023-04-19T11:37:52;99217.91;;;17.51;58.53
16331;BME280;8275;48.206;16.340;2023-04-19T11:40:23;99219.81;;;17.50;58.32
16331;BME280;8275;48.206;16.340;2023-04-19T11:42:54;99218.47;;;17.48;57.87
16331;BME280;8275;48.206;16.340;2023-04-19T11:45:25;99215.41;;;17.49;57.97
16331;BME280;8275;48.206;16.340;2023-04-19T11:47:59;99212.78;;;17.58;58.14
16331;BME280;8275;48.206;16.340;2023-04-19T11:50:36;99211.56;;;17.64;56.60
16331;BME280;8275;48.206;16.340;2023-04-19T11:53:15;99213.56;;;17.77;56.57
16331;BME280;8275;48.206;16.340;2023-04-19T11:55:45;99213.28;;;17.92;56.82
16331;BME280;8275;48.206;16.340;2023-04-19T11:58:28;99206.00;;;18.10;56.11
16331;BME280;8275;48.206;16.340;2023-04-19T12:01:06;99201.28;;;18.24;55.32
16331;BME280;8275;48.206;16.340;2023-04-19T12:03:40;99210.25;;;18.35;54.27
16331;BME280;8275;48.206;16.340;2023-04-19T12:06:12;99200.06;;;18.44;53.19
16331;BME280;8275;48.206;16.340;2023-04-19T12:08:45;99205.41;;;18.54;52.79
16331;BME280;8275;48.206;16.340;2023-04-19T12:11:16;99196.06;;;18.63;52.17
16331;BME280;8275;48.206;16.340;2023-04-19T12:13:45;99193.50;;;18.67;51.07
16331;BME280;8275;48.206;16.340;2023-04-19T12:16:13;99197.91;;;18.68;50.50
16331;BME280;8275;48.206;16.340;2023-04-19T12:18:44;99187.63;;;18.68;50.33
16331;BME280;8275;48.206;16.340;2023-04-19T12:21:26;99194.44;;;18.62;49.28
16331;BME280;8275;48.206;16.340;2023-04-19T12:23:57;99185.06;;;18.58;48.95
16331;BME280;8275;48.206;16.340;2023-04-19T12:26:27;99191.34;;;18.50;47.91
16331;BME280;8275;48.206;16.340;2023-04-19T12:28:57;99190.19;;;18.38;48.00
16331;BME280;8275;48.206;16.340;2023-04-19T12:31:26;99187.13;;;18.26;47.46
16331;BME280;8275;48.206;16.340;2023-04-19T12:33:55;99182.91;;;18.14;47.61
16331;BME280;8275;48.206;16.340;2023-04-19T12:36:24;99182.81;;;18.06;47.28
16331;BME280;8275;48.206;16.340;2023-04-19T12:38:52;99194.72;;;17.93;46.82
16331;BME280;8275;48.206;16.340;2023-04-19T12:41:22;99188.63;;;17.77;47.16
16331;BME280;8275;48.206;16.340;2023-04-19T12:43:51;99192.19;;;17.64;47.45
16331;BME280;8275;48.206;16.340;2023-04-19T12:46:19;99191.53;;;17.53;48.02
16331;BME280;8275;48.206;16.340;2023-04-19T12:48:48;99185.84;;;17.45;48.21
16331;BME280;8275;48.206;16.340;2023-04-19T12:51:16;99186.22;;;17.38;47.97
16331;BME280;8275;48.206;16.340;2023-04-19T12:53:47;99187.13;;;17.34;48.15
16331;BME280;8275;48.206;16.340;2023-04-19T12:56:16;99177.47;;;17.31;47.94
16331;BME280;8275;48.206;16.340;2023-04-19T12:58:47;99178.38;;;17.27;48.02
16331;BME280;8275;48.206;16.340;2023-04-19T13:01:15;99184.22;;;17.25;48.01
16331;BME280;8275;48.206;16.340;2023-04-19T13:03:44;99185.38;;;17.24;47.89
16331;BME280;8275;48.206;16.340;2023-04-19T13:06:13;99184.53;;;17.24;47.75
16331;BME280;8275;48.206;16.340;2023-04-19T13:08:43;99179.53;;;17.26;47.76
16331;BME280;8275;48.206;16.340;2023-04-19T13:11:14;99173.09;;;17.30;47.91
16331;BME280;8275;48.206;16.340;2023-04-19T13:13:43;99179.13;;;17.32;46.96
16331;BME280;8275;48.206;16.340;2023-04-19T13:16:13;99179.56;;;17.39;47.46